Time;durP1;ratioP1;P1;durP2;ratioP2;P2;SDS_P1;SDS_P2;PMS_P1;PMS_P2;Temp;Humidity;BMP_temperature;BMP_pressure;BME280_temperature;BME280_humidity;BME280_pressure;Samples;Min_cycle;Max_cycle;Signal;HPM_P1;HPM_P2
2021/03/23 00:01:50;;;;;;;15.63;13.67;;;7.60;99.90;;;;;;5045159;28;20885;-79
2021/03/23 00:04:20;;;;;;;15.33;13.23;;;7.60;99.90;;;;;;5052856;28;20429;-79
2021/03/23 00:06:46;;;;;;;16.30;12.63;;;7.60;99.90;;;;;;5051580;28;20482;-78
2021/03/23 00:09:17;;;;;;;14.60;12.37;;;7.60;99.90;;;;;;5055827;28;20260;-78
2021/03/23 00:11:46;;;;;;;14.55;13.05;;;7.60;99.90;;;;;;5052925;28;20431;-79
2021/03/23 00:14:17;;;;;;;15.65;12.75;;;7.50;99.90;;;;;;5052380;28;20197;-78
2021/03/23 00:16:47;;;;;;;14.80;13.20;;;7.50;99.90;;;;;;5053503;28;20194;-79
2021/03/23 00:19:18;;;;;;;16.00;13.20;;;7.50;99.90;;;;;;5038400;28;20411;-78
2021/03/23 00:21:46;;;;;;;16.77;12.63;;;7.50;99.90;;;;;;5033149;28;20470;-78
2021/03/23 00:24:15;;;;;;;16.83;14.00;;;7.50;99.90;;;;;;5048252;28;20420;-78
2021/03/23 00:26:45;;;;;;;14.53;13.03;;;7.50;99.90;;;;;;5046898;28;20482;-78
2021/03/23 00:29:12;;;;;;;17.42;13.73;;;7.40;99.90;;;;;;5036209;28;20477;-78
2021/03/23 00:31:47;;;;;;;17.88;13.50;;;7.40;99.90;;;;;;5020373;28;20276;-78
2021/03/23 00:34:15;;;;;;;16.48;13.15;;;7.40;99.90;;;;;;5053167;28;20165;-79
2021/03/23 00:36:42;;;;;;;16.13;13.33;;;7.40;99.90;;;;;;5042882;28;20606;-78
2021/03/23 00:39:10;;;;;;;15.85;13.80;;;7.40;99.90;;;;;;5052882;28;20446;-78
2021/03/23 00:41:46;;;;;;;17.38;12.93;;;7.40;99.90;;;;;;5052969;28;20177;-79
2021/03/23 00:44:16;;;;;;;17.45;12.88;;;7.40;99.90;;;;;;5035553;28;20244;-79
2021/03/23 00:46:44;;;;;;;17.67;14.45;;;7.40;99.90;;;;;;5056703;28;20188;-79
2021/03/23 00:49:13;;;;;;;14.97;13.37;;;7.40;99.90;;;;;;5039403;28;20681;-79
2021/03/23 00:51:41;;;;;;;15.90;14.20;;;7.40;99.90;;;;;;5023233;28;20499;-78
2021/03/23 00:54:09;;;;;;;17.40;12.98;;;7.40;99.90;;;;;;5056612;28;20568;-79
2021/03/23 00:56:35;;;;;;;18.75;15.50;;;7.40;99.90;;;;;;5039351;28;20211;-78
2021/03/23 00:59:08;;;;;;;17.92;13.90;;;7.40;99.90;;;;;;5039766;28;20222;-78
2021/03/23 01:01:36;;;;;;;15.80;12.70;;;7.40;99.90;;;;;;5056622;28;20215;-79
2021/03/23 01:04:05;;;;;;;19.60;13.40;;;7.30;99.90;;;;;;5055654;28;20427;-78
2021/03/23 01:06:35;;;;;;;18.70;14.30;;;7.30;99.90;;;;;;5039813;28;20980;-79
2021/03/23 01:09:02;;;;;;;17.58;14.07;;;7.20;99.90;;;;;;5022763;28;20208;-79
2021/03/23 01:11:33;;;;;;;18.83;13.75;;;7.20;99.90;;;;;;5056527;28;20194;-78
2021/03/23 01:14:04;;;;;;;16.38;13.35;;;7.20;99.90;;;;;;5044384;28;20259;-79
2021/03/23 01:16:32;;;;;;;16.70;14.80;;;7.10;99.90;;;;;;5035531;28;20645;-79
2021/03/23 01:19:02;;;;;;;14.85;12.93;;;7.00;99.90;;;;;;5036420;28;20162;-78
2021/03/23 01:21:33;;;;;;;17.27;14.00;;;7.00;99.90;;;;;;5036403;28;20513;-79
2021/03/23 01:24:02;;;;;;;15.18;12.48;;;6.90;99.90;;;;;;5045883;28;20258;-79
2021/03/23 01:26:35;;;;;;;18.38;14.35;;;6.90;99.90;;;;;;5038622;28;20176;-79
2021/03/23 01:29:05;;;;;;;17.60;13.98;;;6.90;99.90;;;;;;5056085;28;20176;-79
2021/03/23 01:31:36;;;;;;;18.58;14.45;;;6.90;99.90;;;;;;5026368;28;20201;-79
2021/03/23 01:34:07;;;;;;;17.10;13.73;;;6.90;99.90;;;;;;5018438;28;20213;-78
2021/03/23 01:36:39;;;;;;;19.23;14.80;;;6.90;99.90;;;;;;5036063;28;20216;-78
2021/03/23 01:39:07;;;;;;;17.35;14.40;;;6.90;99.90;;;;;;5018967;28;20217;-79
2021/03/23 01:41:35;;;;;;;17.83;14.55;;;6.90;99.90;;;;;;5035155;28;20180;-78
2021/03/23 01:44:04;;;;;;;20.63;14.93;;;6.90;99.90;;;;;;5018850;28;20238;-78
2021/03/23 01:46:48;;;;;;;18.58;14.10;;;6.90;99.90;;;;;;5035285;28;20185;-79
2021/03/23 01:49:23;;;;;;;19.98;14.98;;;6.90;99.90;;;;;;5048268;28;20200;-79
2021/03/23 01:51:53;;;;;;;17.42;13.60;;;6.90;99.90;;;;;;5038077;28;20567;-78
2021/03/23 01:54:35;;;;;;;22.50;14.93;;;6.90;99.90;;;;;;5054707;28;20636;-78
2021/03/23 01:57:07;;;;;;;16.30;13.75;;;6.90;99.90;;;;;;5038252;28;20563;-79
2021/03/23 01:59:43;;;;;;;19.87;13.67;;;7.00;99.90;;;;;;5022165;28;20194;-79
2021/03/23 02:02:09;;;;;;;19.80;13.25;;;7.00;99.90;;;;;;5021956;28;20400;-79
2021/03/23 02:04:37;;;;;;;18.67;14.90;;;7.00;99.90;;;;;;5055493;28;20184;-78
2021/03/23 02:07:10;;;;;;;20.65;14.82;;;7.00;99.90;;;;;;5055719;28;20404;-79
2021/03/23 02:09:37;;;;;;;20.63;15.40;;;7.00;99.90;;;;;;5038182;28;20189;-79
2021/03/23 02:12:14;;;;;;;19.25;14.40;;;7.00;99.90;;;;;;5055252;28;20442;-79
2021/03/23 02:14:46;;;;;;;21.75;14.48;;;7.00;99.90;;;;;;5055610;28;20255;-79
2021/03/23 02:17:40;;;;;;;16.77;13.43;;;7.00;99.90;;;;;;5055599;28;20172;-78
2021/03/23 02:20:16;;;;;;;18.20;14.23;;;7.00;99.90;;;;;;5055143;28;20247;-79
2021/03/23 02:22:50;;;;;;;18.67;13.77;;;7.00;99.90;;;;;;5037639;28;20182;-78
2021/03/23 02:25:26;;;;;;;16.30;14.53;;;7.00;99.90;;;;;;5017553;28;20183;-79
2021/03/23 02:27:55;;;;;;;20.15;15.10;;;7.00;99.90;;;;;;5017794;28;20913;-79
2021/03/23 02:30:42;;;;;;;16.20;14.13;;;7.00;99.90;;;;;;5035069;28;20170;-79
2021/03/23 02:33:10;;;;;;;19.60;15.00;;;7.00;99.90;;;;;;5017711;28;20306;-79
2021/03/23 02:35:36;;;;;;;19.43;14.70;;;7.00;99.90;;;;;;5035079;28;20514;-79
2021/03/23 02:38:05;;;;;;;17.95;13.52;;;7.10;99.90;;;;;;5042887;28;20494;-78
2021/03/23 02:40:36;;;;;;;21.88;14.02;;;7.10;99.90;;;;;;5053056;28;20189;-78
2021/03/23 02:43:02;;;;;;;18.88;15.27;;;7.10;99.90;;;;;;5033838;28;20221;-79
2021/03/23 02:45:29;;;;;;;19.45;14.05;;;7.10;99.90;;;;;;5034665;28;20232;-79
2021/03/23 02:47:59;;;;;;;16.90;14.10;;;7.10;99.90;;;;;;5034999;28;20174;-79
2021/03/23 02:50:27;;;;;;;17.77;14.52;;;7.10;99.90;;;;;;5052367;28;20256;-79
2021/03/23 02:52:53;;;;;;;22.03;15.73;;;7.10;99.90;;;;;;5036937;28;20957;-79
2021/03/23 02:55:19;;;;;;;21.67;16.30;;;7.10;99.90;;;;;;5037060;28;20441;-79
2021/03/23 02:57:50;;;;;;;22.27;15.85;;;7.10;99.90;;;;;;5054809;28;20515;-79
2021/03/23 03:00:18;;;;;;;20.48;15.30;;;7.10;99.90;;;;;;5036855;28;20162;-78
2021/03/23 03:02:50;;;;;;;23.13;15.98;;;7.20;99.90;;;;;;5053805;28;20251;-78
2021/03/23 03:05:19;;;;;;;21.70;15.37;;;7.20;99.90;;;;;;5054360;28;20173;-79
2021/03/23 03:07:45;;;;;;;21.60;16.42;;;7.10;99.90;;;;;;5053575;28;20835;-78
2021/03/23 03:10:14;;;;;;;24.27;15.48;;;7.10;99.90;;;;;;5053691;28;20272;-78
2021/03/23 03:12:47;;;;;;;21.05;15.43;;;7.10;99.90;;;;;;5020988;28;20207;-79
2021/03/23 03:15:18;;;;;;;21.95;16.27;;;7.10;99.90;;;;;;5054200;28;20231;-79
2021/03/23 03:17:49;;;;;;;19.60;15.05;;;7.10;99.90;;;;;;5054140;28;20609;-79
2021/03/23 03:20:19;;;;;;;19.77;15.40;;;7.10;99.90;;;;;;5036703;28;20651;-79
2021/03/23 03:22:49;;;;;;;22.05;16.55;;;7.10;99.90;;;;;;5044527;28;20438;-79
2021/03/23 03:25:21;;;;;;;23.73;16.53;;;7.20;99.90;;;;;;5033736;28;20512;-78
2021/03/23 03:27:53;;;;;;;22.10;17.00;;;7.20;99.90;;;;;;5033580;28;20732;-78
2021/03/23 03:30:26;;;;;;;21.25;16.80;;;7.10;99.90;;;;;;5033414;28;20524;-78
2021/03/23 03:32:53;;;;;;;22.70;15.80;;;7.20;99.90;;;;;;5033789;28;20274;-78
2021/03/23 03:35:27;;;;;;;24.05;17.75;;;7.10;99.90;;;;;;5033873;28;20447;-79
2021/03/23 03:37:58;;;;;;;23.30;15.73;;;7.20;99.90;;;;;;5034107;28;20177;-79
2021/03/23 03:40:35;;;;;;;25.73;17.73;;;7.20;99.90;;;;;;5033045;28;20172;-79
2021/03/23 03:43:06;;;;;;;24.73;17.50;;;7.20;99.90;;;;;;5035911;28;20570;-79
2021/03/23 03:45:34;;;;;;;23.43;16.73;;;7.20;99.90;;;;;;5053032;28;20462;-78
2021/03/23 03:48:06;;;;;;;26.67;17.52;;;7.10;99.90;;;;;;5054044;28;20415;-79
2021/03/23 03:50:36;;;;;;;24.60;18.47;;;7.20;99.90;;;;;;5053486;28;20516;-78
2021/03/23 03:53:08;;;;;;;24.73;16.83;;;7.20;99.90;;;;;;5053628;28;20473;-79
2021/03/23 03:55:40;;;;;;;24.50;17.10;;;7.10;99.90;;;;;;5036502;28;20614;-79
2021/03/23 03:58:12;;;;;;;22.42;16.30;;;7.20;99.90;;;;;;5053912;28;20414;-79
2021/03/23 04:00:40;;;;;;;24.65;16.73;;;7.10;99.90;;;;;;5019552;28;20209;-78
2021/03/23 04:03:14;;;;;;;27.27;18.60;;;7.10;99.90;;;;;;5053676;28;20234;-79
2021/03/23 04:05:47;;;;;;;26.98;18.30;;;7.10;99.90;;;;;;5036219;28;20180;-78
2021/03/23 04:08:15;;;;;;;26.77;18.50;;;7.10;99.90;;;;;;5036062;28;20659;-79
2021/03/23 04:10:46;;;;;;;29.77;17.83;;;7.20;99.90;;;;;;5053690;28;20428;-78
2021/03/23 04:13:20;;;;;;;22.70;17.40;;;7.10;99.90;;;;;;5053330;28;20286;-78
2021/03/23 04:15:51;;;;;;;27.23;18.73;;;7.10;99.90;;;;;;5035831;28;20780;-79
2021/03/23 04:18:20;;;;;;;27.33;19.00;;;7.20;99.90;;;;;;5053569;28;20424;-78
2021/03/23 04:20:50;;;;;;;24.20;17.20;;;7.10;99.90;;;;;;5021761;28;20426;-78
2021/03/23 04:23:32;;;;;;;22.60;17.33;;;7.10;99.90;;;;;;5057358;28;20468;-79
2021/03/23 04:26:02;;;;;;;28.23;18.10;;;7.10;99.90;;;;;;5057285;28;20271;-79
2021/03/23 04:28:33;;;;;;;26.00;18.57;;;7.10;99.90;;;;;;5057321;28;20260;-78
2021/03/23 04:31:05;;;;;;;23.15;17.20;;;7.10;99.90;;;;;;5040149;28;20416;-78
2021/03/23 04:33:31;;;;;;;30.92;19.30;;;7.10;99.90;;;;;;5039987;28;20266;-79
2021/03/23 04:36:07;;;;;;;25.98;18.00;;;7.10;99.90;;;;;;5057298;28;20228;-78
2021/03/23 04:38:38;;;;;;;29.80;18.60;;;7.10;99.90;;;;;;5039908;28;20175;-79
2021/03/23 04:41:11;;;;;;;27.77;18.53;;;7.00;99.90;;;;;;5056638;28;20191;-78
2021/03/23 04:43:43;;;;;;;25.35;18.75;;;7.00;99.90;;;;;;5055927;28;21002;-78
2021/03/23 04:46:11;;;;;;;27.33;18.90;;;7.00;99.90;;;;;;5057074;28;20171;-78
2021/03/23 04:48:44;;;;;;;28.77;19.53;;;7.00;99.90;;;;;;5055422;28;20442;-78
2021/03/23 04:51:16;;;;;;;31.33;19.73;;;7.00;99.90;;;;;;5023293;28;20419;-78
2021/03/23 04:53:44;;;;;;;29.92;21.67;;;7.00;99.90;;;;;;5056470;28;20206;-79
2021/03/23 04:56:25;;;;;;;32.40;20.85;;;7.00;99.90;;;;;;5039461;28;20287;-79
2021/03/23 04:58:58;;;;;;;32.38;21.52;;;7.00;99.90;;;;;;5056163;28;20181;-78
2021/03/23 05:01:27;;;;;;;30.20;21.50;;;7.00;99.90;;;;;;5056993;28;20189;-79
2021/03/23 05:04:00;;;;;;;32.10;22.70;;;6.90;99.90;;;;;;5056494;28;20213;-79
2021/03/23 05:06:29;;;;;;;28.40;20.58;;;7.00;99.90;;;;;;5056630;28;20247;-79
2021/03/23 05:08:57;;;;;;;33.75;22.30;;;7.00;99.90;;;;;;5039107;28;20181;-79
2021/03/23 05:11:28;;;;;;;30.30;20.38;;;6.90;99.90;;;;;;5039042;28;20706;-79
2021/03/23 05:13:54;;;;;;;30.30;21.88;;;6.90;99.90;;;;;;5022383;28;20209;-79
2021/03/23 05:16:23;;;;;;;32.50;20.37;;;7.00;99.90;;;;;;5056720;28;20220;-79
2021/03/23 05:18:50;;;;;;;28.33;22.02;;;7.00;99.90;;;;;;5056395;28;20428;-79
2021/03/23 05:21:19;;;;;;;30.70;20.92;;;7.00;99.90;;;;;;5056324;28;20188;-78
2021/03/23 05:23:48;;;;;;;28.93;20.80;;;7.00;99.90;;;;;;5039075;28;20200;-79
2021/03/23 05:26:19;;;;;;;30.93;21.33;;;7.10;99.90;;;;;;5055800;28;20828;-79
2021/03/23 05:28:50;;;;;;;31.50;21.75;;;7.10;99.90;;;;;;5038933;28;20423;-78
2021/03/23 05:31:19;;;;;;;28.10;19.95;;;7.10;99.90;;;;;;5055581;28;20196;-78
2021/03/23 05:33:53;;;;;;;31.30;21.23;;;7.10;99.90;;;;;;5055451;28;20649;-79
2021/03/23 05:36:25;;;;;;;32.00;20.90;;;7.10;99.90;;;;;;5038650;28;20196;-79
2021/03/23 05:38:54;;;;;;;31.37;20.27;;;7.10;99.90;;;;;;5038860;28;20176;-79
2021/03/23 05:42:00;;;;;;;27.75;21.77;;;7.10;99.90;;;;;;5055545;28;20500;-79
2021/03/23 05:44:53;;;;;;;28.93;19.40;;;7.10;99.90;;;;;;5038249;28;20531;-79
2021/03/23 05:47:25;;;;;;;32.43;19.90;;;7.10;99.90;;;;;;5038082;28;20423;-79
2021/03/23 05:50:00;;;;;;;29.40;20.73;;;7.10;99.90;;;;;;5055712;28;20456;-78
2021/03/23 05:52:47;;;;;;;31.57;22.10;;;7.20;99.90;;;;;;5038690;28;20472;-79
2021/03/23 05:55:42;;;;;;;30.88;22.15;;;7.20;99.90;;;;;;5055751;28;20438;-79
2021/03/23 05:58:33;;;;;;;31.77;20.83;;;7.20;99.90;;;;;;5038904;28;20201;-79
2021/03/23 06:01:59;;;;;;;30.97;23.40;;;7.20;99.90;;;;;;5056022;28;20200;-78
2021/03/23 06:04:33;;;;;;;32.60;21.33;;;7.20;99.90;;;;;;5033913;28;20434;-79
2021/03/23 06:07:06;;;;;;;31.98;21.75;;;7.20;99.90;;;;;;5055495;28;20189;-78
2021/03/23 06:09:36;;;;;;;33.45;22.10;;;7.20;99.90;;;;;;5037903;28;20263;-79
2021/03/23 06:12:38;;;;;;;31.40;20.92;;;7.20;99.90;;;;;;5038020;28;20173;-79
2021/03/23 06:15:11;;;;;;;32.77;22.37;;;7.30;99.90;;;;;;5022512;28;20591;-78
2021/03/23 06:18:14;;;;;;;31.10;23.37;;;7.20;99.90;;;;;;5035362;28;20795;-79
2021/03/23 06:21:02;;;;;;;29.63;22.53;;;7.20;99.90;;;;;;5035662;28;20758;-79
2021/03/23 06:23:57;;;;;;;34.58;24.13;;;7.20;99.90;;;;;;5039613;28;20442;-79
2021/03/23 06:27:01;;;;;;;35.47;22.90;;;7.20;99.90;;;;;;5037682;28;20172;-79
2021/03/23 06:29:27;;;;;;;35.10;22.33;;;7.20;99.90;;;;;;5054155;28;20177;-79
2021/03/23 06:32:20;;;;;;;33.30;23.73;;;7.20;99.90;;;;;;5054411;28;20204;-79
2021/03/23 06:34:56;;;;;;;37.28;24.20;;;7.20;99.90;;;;;;5055297;28;20528;-79
2021/03/23 06:37:31;;;;;;;34.22;23.05;;;7.30;99.90;;;;;;5054055;28;20168;-79
2021/03/23 06:40:08;;;;;;;33.03;21.70;;;7.30;99.90;;;;;;5054851;28;20188;-79
2021/03/23 06:42:41;;;;;;;34.60;24.33;;;7.30;99.90;;;;;;5053526;28;20776;-79
2021/03/23 06:45:33;;;;;;;36.87;24.17;;;7.30;99.90;;;;;;5020623;28;20316;-79
2021/03/23 06:48:32;;;;;;;38.05;23.45;;;7.40;99.90;;;;;;5037764;28;20400;-79
2021/03/23 06:51:12;;;;;;;35.50;24.80;;;7.40;99.90;;;;;;5054662;28;20255;-79
2021/03/23 06:53:46;;;;;;;30.83;22.27;;;7.40;99.90;;;;;;5020565;28;20458;-79
2021/03/23 06:56:26;;;;;;;31.70;23.67;;;7.50;99.90;;;;;;5046864;28;20424;-79
2021/03/23 06:59:11;;;;;;;38.27;23.97;;;7.50;99.90;;;;;;5034546;28;20868;-79
2021/03/23 07:01:50;;;;;;;36.88;23.70;;;7.50;99.90;;;;;;5017408;28;20873;-79
2021/03/23 07:04:39;;;;;;;31.77;22.90;;;7.60;99.90;;;;;;5034444;28;20308;-79
2021/03/23 07:07:23;;;;;;;35.53;24.03;;;7.70;99.90;;;;;;5016971;28;20432;-79
2021/03/23 07:09:54;;;;;;;38.60;24.10;;;7.70;99.90;;;;;;5034551;28;20861;-82
2021/03/23 07:12:41;;;;;;;33.70;24.00;;;7.80;99.90;;;;;;5033494;28;22323;-82
2021/03/23 07:15:34;;;;;;;36.07;23.80;;;7.80;99.90;;;;;;5053460;28;20455;-82
2021/03/23 07:18:06;;;;;;;34.80;21.70;;;7.80;99.90;;;;;;5031857;28;20523;-83
2021/03/23 07:20:38;;;;;;;33.63;24.63;;;7.80;99.90;;;;;;5052601;28;20424;-81
2021/03/23 07:23:31;;;;;;;32.27;23.27;;;7.80;99.90;;;;;;5053265;28;20417;-80
2021/03/23 07:26:12;;;;;;;36.07;24.33;;;7.90;99.90;;;;;;5053336;28;20419;-81
2021/03/23 07:28:43;;;;;;;31.80;21.83;;;7.90;99.90;;;;;;5034924;28;20496;-81
2021/03/23 07:31:35;;;;;;;34.40;22.93;;;7.90;99.90;;;;;;5051558;28;20399;-81
2021/03/23 07:34:13;;;;;;;34.13;23.37;;;8.00;99.90;;;;;;5044114;28;20471;-82
2021/03/23 07:37:00;;;;;;;33.75;23.25;;;8.00;99.90;;;;;;5051466;28;20511;-83
2021/03/23 07:39:41;;;;;;;31.87;21.27;;;7.90;99.90;;;;;;5052110;28;20194;-81
2021/03/23 07:42:25;;;;;;;31.67;21.03;;;7.90;99.90;;;;;;5047214;28;20813;-81
2021/03/23 07:45:01;;;;;;;40.67;22.50;;;8.10;99.90;;;;;;5033958;28;20468;-80
2021/03/23 07:47:39;;;;;;;30.20;21.37;;;8.10;99.90;;;;;;5033920;28;20416;-81
2021/03/23 07:50:17;;;;;;;33.33;22.40;;;8.10;99.90;;;;;;5048341;28;20509;-81
2021/03/23 07:53:07;;;;;;;36.07;23.17;;;8.20;99.90;;;;;;5017366;28;20475;-81
2021/03/23 07:55:39;;;;;;;37.75;22.70;;;8.30;99.90;;;;;;5047709;28;20963;-80
2021/03/23 07:58:40;;;;;;;34.87;22.80;;;8.40;99.90;;;;;;5051495;28;20193;-80
2021/03/23 08:01:20;;;;;;;38.10;23.40;;;8.40;99.90;;;;;;5030055;28;20432;-79
2021/03/23 08:04:16;;;;;;;36.27;22.80;;;8.40;99.90;;;;;;5034835;28;20440;-80
2021/03/23 08:07:03;;;;;;;35.70;21.33;;;8.40;99.90;;;;;;5035240;28;20774;-80
2021/03/23 08:09:49;;;;;;;32.83;20.30;;;8.40;99.90;;;;;;5052855;28;20513;-79
2021/03/23 08:12:56;;;;;;;33.00;20.83;;;8.50;99.90;;;;;;5044229;28;20435;-79
2021/03/23 08:16:09;;;;;;;35.27;20.70;;;8.60;99.90;;;;;;5052090;28;20456;-79
2021/03/23 08:19:14;;;;;;;37.43;22.00;;;8.60;99.90;;;;;;4998448;28;20432;-80
2021/03/23 08:22:13;;;;;;;40.13;23.27;;;8.80;99.90;;;;;;5035127;28;20430;-80
2021/03/23 08:25:13;;;;;;;33.27;22.07;;;8.90;99.90;;;;;;5029938;28;20885;-80
2021/03/23 08:28:10;;;;;;;34.67;22.13;;;8.90;99.90;;;;;;5034672;28;20508;-79
2021/03/23 08:31:13;;;;;;;33.87;22.53;;;9.00;99.90;;;;;;5034392;28;20578;-82
2021/03/23 08:33:39;;;;;;;29.47;20.60;;;9.00;99.90;;;;;;5034540;28;20468;-81
2021/03/23 08:36:29;;;;;;;33.80;20.67;;;9.10;99.90;;;;;;5034613;28;20910;-80
2021/03/23 08:39:17;;;;;;;27.77;19.17;;;9.30;99.90;;;;;;5052004;28;20475;-80
2021/03/23 08:41:59;;;;;;;32.40;20.77;;;9.40;99.90;;;;;;5018869;28;20479;-81
2021/03/23 08:44:28;;;;;;;37.33;20.37;;;9.50;99.90;;;;;;5044054;28;20522;-81
2021/03/23 08:46:55;;;;;;;32.50;20.10;;;9.60;99.90;;;;;;5052209;28;20433;-80
2021/03/23 08:49:29;;;;;;;33.20;22.23;;;9.70;99.90;;;;;;5052081;28;20428;-80
2021/03/23 08:51:58;;;;;;;30.60;18.93;;;9.60;99.90;;;;;;5034064;28;20429;-80
2021/03/23 08:54:46;;;;;;;32.30;20.80;;;9.70;99.90;;;;;;5034786;28;20515;-80
2021/03/23 08:57:19;;;;;;;30.73;21.43;;;9.80;99.90;;;;;;5028138;28;20429;-81
2021/03/23 08:59:48;;;;;;;34.00;20.90;;;9.80;99.90;;;;;;5048443;28;20531;-82
2021/03/23 09:02:14;;;;;;;29.10;19.23;;;9.90;99.90;;;;;;5031653;28;20435;-80
2021/03/23 09:04:50;;;;;;;28.90;20.60;;;9.80;99.90;;;;;;5051138;28;20437;-81
2021/03/23 09:07:30;;;;;;;31.90;20.03;;;9.90;99.90;;;;;;5053887;28;20886;-80
2021/03/23 09:09:56;;;;;;;33.53;21.80;;;10.00;99.90;;;;;;5054758;28;20539;-80
2021/03/23 09:12:44;;;;;;;30.37;20.00;;;9.90;99.90;;;;;;5019578;28;20874;-80
2021/03/23 09:15:23;;;;;;;32.70;21.57;;;10.00;99.90;;;;;;5053291;28;20523;-80
2021/03/23 09:18:05;;;;;;;25.07;19.60;;;10.00;99.90;;;;;;5054592;28;20429;-82
2021/03/23 09:20:32;;;;;;;31.10;21.83;;;10.20;99.90;;;;;;5052843;28;20428;-80
2021/03/23 09:23:19;;;;;;;31.10;19.77;;;10.30;99.90;;;;;;5051811;28;20427;-80
2021/03/23 09:26:03;;;;;;;27.73;20.40;;;10.40;99.90;;;;;;5053496;28;20430;-80
2021/03/23 09:28:29;;;;;;;35.53;21.50;;;10.40;99.90;;;;;;5054838;28;20472;-81
2021/03/23 09:31:06;;;;;;;25.13;18.73;;;10.50;99.90;;;;;;5021287;28;20529;-80
2021/03/23 09:33:36;;;;;;;25.27;18.77;;;10.70;99.90;;;;;;5054231;28;20475;-80
2021/03/23 09:38:39;;;;;;;33.20;19.57;;;10.90;99.90;;;;;;5037631;28;20768;-79
2021/03/23 09:41:33;;;;;;;29.23;17.87;;;11.00;99.90;;;;;;5037182;28;20418;-78
2021/03/23 09:44:06;;;;;;;24.03;17.73;;;11.10;99.90;;;;;;5051677;28;20478;-78
2021/03/23 09:46:43;;;;;;;30.17;21.23;;;11.00;99.90;;;;;;5045784;28;20428;-80
2021/03/23 09:49:28;;;;;;;25.23;20.53;;;10.90;99.90;;;;;;5000470;28;20497;-81
2021/03/23 09:52:00;;;;;;;26.70;20.63;;;10.90;99.90;;;;;;5045872;28;20426;-80
2021/03/23 09:54:57;;;;;;;24.10;18.67;;;11.00;99.90;;;;;;5036663;28;20616;-80
2021/03/23 09:57:28;;;;;;;23.93;18.37;;;11.10;99.90;;;;;;5053322;28;20529;-80
2021/03/23 10:00:00;;;;;;;25.47;18.97;;;11.30;99.90;;;;;;5052723;28;20441;-79
2021/03/23 10:02:39;;;;;;;29.33;18.63;;;11.40;99.90;;;;;;5002572;28;20435;-80
2021/03/23 10:05:25;;;;;;;22.33;18.30;;;11.60;99.90;;;;;;5034896;28;20434;-79
2021/03/23 10:08:19;;;;;;;22.83;18.33;;;11.50;99.90;;;;;;5053782;28;20428;-79
2021/03/23 10:10:50;;;;;;;32.00;20.20;;;11.60;99.90;;;;;;5053562;28;20438;-80
2021/03/23 10:13:31;;;;;;;25.20;18.00;;;11.60;99.90;;;;;;5030469;28;20561;-78
2021/03/23 10:16:08;;;;;;;23.53;17.93;;;11.60;99.90;;;;;;5051100;28;20431;-79
2021/03/23 10:18:44;;;;;;;28.23;19.33;;;11.70;99.60;;;;;;5051466;28;20557;-79
2021/03/23 10:21:14;;;;;;;25.20;17.53;;;11.70;99.90;;;;;;5053395;28;20426;-81
2021/03/23 10:23:55;;;;;;;26.73;19.07;;;11.90;99.90;;;;;;5050772;28;20505;-80
2021/03/23 10:26:40;;;;;;;23.33;17.93;;;12.10;99.90;;;;;;5035978;28;20410;-79
2021/03/23 10:29:30;;;;;;;21.63;16.63;;;12.10;99.50;;;;;;5052841;28;20442;-80
2021/03/23 10:32:20;;;;;;;25.43;18.33;;;12.20;98.80;;;;;;5052639;28;20430;-79
2021/03/23 10:35:26;;;;;;;24.37;17.97;;;12.40;98.60;;;;;;5052819;28;20513;-80
2021/03/23 10:38:17;;;;;;;22.70;17.13;;;12.70;98.20;;;;;;4992618;28;20443;-80
2021/03/23 10:40:49;;;;;;;23.70;17.40;;;12.80;97.60;;;;;;4991137;28;20824;-79
2021/03/23 10:43:34;;;;;;;22.90;19.40;;;12.90;97.20;;;;;;4974358;28;20508;-79
2021/03/23 10:46:29;;;;;;;24.60;18.57;;;13.00;97.10;;;;;;4975536;28;20487;-79
2021/03/23 10:49:29;;;;;;;29.70;18.97;;;13.10;97.20;;;;;;4982833;28;20441;-79
2021/03/23 10:51:57;;;;;;;22.30;16.80;;;13.30;97.10;;;;;;4979482;28;20914;-79
2021/03/23 10:54:46;;;;;;;22.43;18.13;;;13.70;95.90;;;;;;4974938;28;20957;-79
2021/03/23 10:57:38;;;;;;;27.70;18.93;;;13.70;95.70;;;;;;4975020;28;20450;-80
2021/03/23 11:00:27;;;;;;;26.23;18.00;;;13.80;96.00;;;;;;4959358;28;20454;-79
2021/03/23 11:03:28;;;;;;;23.70;17.73;;;14.10;94.60;;;;;;4974732;28;20452;-81
2021/03/23 11:05:54;;;;;;;25.83;17.70;;;14.30;94.50;;;;;;4989813;28;20431;-80
2021/03/23 11:08:20;;;;;;;22.30;17.87;;;14.60;95.30;;;;;;5014551;28;20459;-80
2021/03/23 11:10:59;;;;;;;24.50;19.83;;;14.70;94.30;;;;;;5052597;28;20506;-79
2021/03/23 11:13:28;;;;;;;19.43;17.43;;;14.60;94.40;;;;;;5017020;28;21022;-80
2021/03/23 11:16:00;;;;;;;25.97;18.93;;;14.50;94.30;;;;;;5051336;28;21035;-80
2021/03/23 11:18:36;;;;;;;20.47;18.00;;;14.20;94.00;;;;;;5034110;28;20906;-81
2021/03/23 11:21:13;;;;;;;23.50;19.00;;;14.20;95.30;;;;;;5034997;28;20489;-80
2021/03/23 11:23:46;;;;;;;20.03;17.70;;;14.10;94.70;;;;;;5051526;28;20454;-80
2021/03/23 11:26:32;;;;;;;21.63;18.00;;;13.90;94.40;;;;;;5051839;28;20773;-80
2021/03/23 11:29:04;;;;;;;24.13;19.13;;;13.70;94.40;;;;;;5050549;28;20430;-80
2021/03/23 11:31:33;;;;;;;23.30;19.83;;;13.80;94.20;;;;;;5051816;28;20443;-80
2021/03/23 11:34:04;;;;;;;20.80;16.90;;;13.70;94.80;;;;;;5051841;28;20458;-80
2021/03/23 11:36:35;;;;;;;22.53;18.40;;;13.70;95.10;;;;;;5052492;28;20434;-80
2021/03/23 11:39:08;;;;;;;20.80;18.60;;;13.70;94.90;;;;;;5051557;28;20823;-80
2021/03/23 11:41:40;;;;;;;21.53;17.30;;;13.90;94.80;;;;;;5051754;28;20458;-79
2021/03/23 11:44:29;;;;;;;20.20;18.10;;;14.00;93.70;;;;;;5033479;28;20487;-80
2021/03/23 11:47:05;;;;;;;23.60;19.40;;;13.90;93.80;;;;;;5052207;28;20436;-80
2021/03/23 11:50:02;;;;;;;27.83;20.60;;;13.80;94.00;;;;;;5033984;28;21168;-80
2021/03/23 11:52:35;;;;;;;26.67;19.63;;;13.90;94.80;;;;;;5051159;28;20911;-80
2021/03/23 11:55:04;;;;;;;22.90;19.00;;;14.20;96.00;;;;;;5051858;28;20422;-83
2021/03/23 11:57:30;;;;;;;23.83;20.40;;;14.40;93.80;;;;;;5001837;28;20505;-83
2021/03/23 11:59:57;;;;;;;21.00;18.57;;;14.40;93.70;;;;;;5017445;28;20427;-84
2021/03/23 12:02:29;;;;;;;24.00;19.43;;;14.30;94.50;;;;;;5034423;28;20427;-80
2021/03/23 12:04:58;;;;;;;26.30;19.70;;;14.20;94.40;;;;;;5032921;28;20445;-80
2021/03/23 12:07:51;;;;;;;22.47;19.97;;;14.20;94.50;;;;;;5033153;28;20448;-80
2021/03/23 12:10:36;;;;;;;19.93;17.43;;;14.30;94.90;;;;;;5032731;28;20448;-80
2021/03/23 12:13:11;;;;;;;25.10;19.73;;;14.20;94.30;;;;;;5033895;28;20470;-79
2021/03/23 12:19:11;;;;;;;25.33;19.17;;;14.10;94.80;;;;;;5050723;28;20443;-79
2021/03/23 12:21:57;;;;;;;24.77;19.40;;;14.00;95.80;;;;;;5050908;28;20439;-79
2021/03/23 12:24:32;;;;;;;25.80;19.97;;;13.90;95.00;;;;;;5034114;28;20431;-79
2021/03/23 12:27:04;;;;;;;31.43;18.70;;;13.70;94.90;;;;;;5033528;28;20434;-78
2021/03/23 12:29:30;;;;;;;25.93;20.20;;;13.60;95.50;;;;;;5050908;28;20447;-79
2021/03/23 12:32:04;;;;;;;24.73;20.23;;;13.70;96.10;;;;;;5052897;28;20441;-78
2021/03/23 12:34:35;;;;;;;24.83;18.43;;;13.80;95.80;;;;;;5046098;28;20550;-78
2021/03/23 12:37:01;;;;;;;24.80;18.83;;;13.80;96.10;;;;;;5051045;28;20832;-78
2021/03/23 12:39:37;;;;;;;21.40;18.90;;;13.60;95.60;;;;;;5016994;28;20532;-79
2021/03/23 12:42:10;;;;;;;23.00;18.53;;;13.60;96.20;;;;;;5053509;28;20493;-79
2021/03/23 12:44:40;;;;;;;25.23;19.13;;;13.60;96.80;;;;;;5054058;28;20577;-78
2021/03/23 12:47:11;;;;;;;26.30;20.10;;;13.60;96.60;;;;;;5054517;28;20457;-80
2021/03/23 12:49:37;;;;;;;22.23;19.83;;;13.50;97.60;;;;;;5054564;28;20852;-82
2021/03/23 12:52:07;;;;;;;19.73;17.37;;;13.40;97.00;;;;;;5036934;28;20520;-81
2021/03/23 12:54:46;;;;;;;22.73;18.87;;;13.50;97.30;;;;;;5054546;28;20468;-79
2021/03/23 12:57:19;;;;;;;23.37;18.13;;;13.30;96.80;;;;;;5054593;28;20911;-80
2021/03/23 12:59:49;;;;;;;23.50;18.70;;;13.20;97.40;;;;;;5037542;28;20424;-80
2021/03/23 13:02:19;;;;;;;22.20;19.30;;;13.20;97.00;;;;;;5036923;28;20420;-80
2021/03/23 13:04:45;;;;;;;22.80;18.47;;;13.20;97.10;;;;;;5054293;28;20488;-80
2021/03/23 13:07:30;;;;;;;25.80;19.17;;;13.30;97.70;;;;;;5036834;28;20456;-80
2021/03/23 13:09:59;;;;;;;21.27;18.67;;;13.30;98.20;;;;;;5036510;28;20432;-80
2021/03/23 13:12:29;;;;;;;24.07;19.20;;;13.30;98.30;;;;;;5054048;28;20769;-79
2021/03/23 13:14:55;;;;;;;22.07;18.23;;;13.30;98.60;;;;;;5045028;28;20940;-78
2021/03/23 13:17:24;;;;;;;21.03;17.60;;;13.30;96.50;;;;;;5054490;28;20424;-78
2021/03/23 13:19:52;;;;;;;24.90;19.07;;;13.30;96.30;;;;;;5052238;28;20541;-78
2021/03/23 13:22:30;;;;;;;22.93;18.40;;;13.30;96.30;;;;;;5051741;28;20826;-79
2021/03/23 13:25:05;;;;;;;23.57;19.10;;;13.20;96.50;;;;;;5052815;28;20425;-78